Time;durP1;ratioP1;P1;durP2;ratioP2;P2;SDS_P1;SDS_P2;PMS_P1;PMS_P2;Temp;Humidity;BMP_temperature;BMP_pressure;BME280_temperature;BME280_humidity;BME280_pressure;Samples;Min_cycle;Max_cycle;Signal;HPM_P1;HPM_P2
2023/12/10 00:00:24;;;;;;;;;;;;;;;;;;;;;
2023/12/10 00:03:06;;;;;;;14.30;13.20;;;8.30;99.90;;;;;;5021297;28;20251;-84
2023/12/10 00:05:38;;;;;;;14.07;13.13;;;8.30;99.90;;;;;;5028403;28;20258;-84
2023/12/10 00:08:20;;;;;;;14.40;13.30;;;8.30;99.90;;;;;;5043525;28;20485;-84
2023/12/10 00:10:50;;;;;;;14.30;13.40;;;8.30;99.90;;;;;;5015373;28;20231;-85
2023/12/10 00:13:23;;;;;;;14.07;13.13;;;8.30;99.90;;;;;;5015456;28;20553;-84
2023/12/10 00:15:59;;;;;;;14.47;13.57;;;8.30;99.90;;;;;;5026143;28;20762;-83
2023/12/10 00:18:56;;;;;;;;;;;;;;;;;;;;;
2023/12/10 00:24:38;;;;;;;14.97;13.80;;;8.30;99.90;;;;;;5015752;28;20223;-84
2023/12/10 00:27:24;;;;;;;14.97;13.70;;;8.20;99.90;;;;;;5014790;28;20218;-85
2023/12/10 00:30:20;;;;;;;15.70;14.40;;;8.20;99.90;;;;;;5014929;28;20239;-85
2023/12/10 00:33:09;;;;;;;15.13;13.70;;;8.20;99.90;;;;;;5027073;28;20200;-84
2023/12/10 00:36:05;;;;;;;;;;;;;;;;;;;;;
2023/12/10 00:38:35;;;;;;;15.50;14.10;;;8.10;99.90;;;;;;5023953;28;20567;-84
2023/12/10 00:41:14;;;;;;;14.43;13.30;;;8.10;99.90;;;;;;5014742;28;20249;-85
2023/12/10 00:43:46;;;;;;;15.07;13.90;;;8.20;99.90;;;;;;5032334;28;20253;-82
2023/12/10 00:46:26;;;;;;;15.07;13.67;;;8.10;99.90;;;;;;5017829;28;20202;-85
2023/12/10 00:49:01;;;;;;;15.23;13.83;;;8.10;99.90;;;;;;5022586;28;20694;-85
2023/12/10 00:51:49;;;;;;;14.27;13.17;;;8.10;99.90;;;;;;5030803;28;20679;-84
2023/12/10 00:54:29;;;;;;;15.00;13.70;;;8.10;99.90;;;;;;5030669;28;20215;-85
2023/12/10 00:57:15;;;;;;;;;;;;;;;;;;;;;
2023/12/10 00:59:54;;;;;;;15.53;14.13;;;8.10;99.90;;;;;;5031927;28;20203;-85
2023/12/10 01:02:26;;;;;;;14.83;13.47;;;8.10;99.90;;;;;;5029134;28;20195;-85
2023/12/10 01:05:05;;;;;;;15.63;14.03;;;8.10;99.90;;;;;;5014075;28;20235;-84
2023/12/10 01:07:38;;;;;;;16.17;14.10;;;8.00;99.90;;;;;;5014847;28;20213;-84
2023/12/10 01:10:19;;;;;;;15.60;14.20;;;8.00;99.90;;;;;;5031173;28;20249;-84
2023/12/10 01:13:08;;;;;;;15.73;14.27;;;8.10;99.90;;;;;;5035919;28;20195;-85
2023/12/10 01:15:40;;;;;;;14.43;13.23;;;8.10;99.90;;;;;;5017508;28;20228;-84
2023/12/10 01:18:22;;;;;;;14.43;13.20;;;8.10;99.90;;;;;;5029326;28;20195;-84
2023/12/10 01:21:06;;;;;;;14.60;13.33;;;8.10;99.90;;;;;;5010936;28;20207;-84
2023/12/10 01:23:46;;;;;;;17.07;14.13;;;8.10;99.90;;;;;;5035741;28;20254;-84
2023/12/10 01:26:14;;;;;;;14.97;13.57;;;8.10;99.90;;;;;;5035819;28;20279;-84
2023/12/10 01:28:43;;;;;;;16.17;14.50;;;8.10;99.90;;;;;;5036248;28;20734;-85
2023/12/10 01:31:16;;;;;;;16.40;14.63;;;8.00;99.90;;;;;;5018531;28;20199;-85
2023/12/10 01:33:48;;;;;;;16.40;14.60;;;8.00;99.90;;;;;;5046646;28;20200;-84
2023/12/10 01:36:32;;;;;;;16.00;14.60;;;7.90;99.90;;;;;;5018277;28;20235;-85
2023/12/10 01:39:05;;;;;;;17.13;15.53;;;7.90;99.90;;;;;;5034960;28;20192;-85
2023/12/10 01:41:34;;;;;;;17.10;15.37;;;7.90;99.90;;;;;;5029953;28;20691;-84
2023/12/10 01:44:03;;;;;;;16.03;14.50;;;7.80;99.90;;;;;;5042650;28;20188;-85
2023/12/10 01:46:37;;;;;;;17.90;15.67;;;7.80;99.90;;;;;;5020543;28;20250;-85
2023/12/10 01:49:07;;;;;;;17.43;14.63;;;7.80;99.90;;;;;;5018277;28;20291;-84
2023/12/10 01:51:39;;;;;;;16.10;14.80;;;7.80;99.90;;;;;;5020435;28;20200;-85
2023/12/10 01:54:08;;;;;;;16.67;15.07;;;7.70;99.90;;;;;;5024808;28;20207;-84
2023/12/10 01:56:45;;;;;;;15.77;14.37;;;7.70;99.90;;;;;;5051939;28;20277;-85
2023/12/10 01:59:18;;;;;;;16.80;15.30;;;7.70;99.90;;;;;;5013473;28;20675;-85
2023/12/10 02:02:00;;;;;;;19.77;15.33;;;7.70;99.90;;;;;;5039638;28;20222;-85
2023/12/10 02:04:30;;;;;;;15.63;14.33;;;7.70;99.90;;;;;;5018572;28;20235;-85
2023/12/10 02:07:09;;;;;;;16.53;14.90;;;7.70;99.90;;;;;;5029682;28;20676;-85
2023/12/10 02:09:44;;;;;;;19.37;15.00;;;7.70;99.90;;;;;;5036105;28;20652;-85
2023/12/10 02:12:37;;;;;;;16.80;15.17;;;7.70;99.90;;;;;;5026760;28;20203;-85
2023/12/10 02:15:20;;;;;;;16.23;14.53;;;7.60;99.90;;;;;;5034777;28;20612;-85
2023/12/10 02:18:07;;;;;;;19.00;15.13;;;7.60;99.90;;;;;;5021151;28;20222;-85
2023/12/10 02:20:44;;;;;;;25.60;15.67;;;7.70;99.90;;;;;;5024413;28;20207;-84
2023/12/10 02:23:32;;;;;;;18.57;15.83;;;7.70;99.90;;;;;;5017393;28;20632;-85
2023/12/10 02:26:10;;;;;;;17.77;14.97;;;7.60;99.90;;;;;;5009588;28;20220;-85
2023/12/10 02:28:44;;;;;;;21.10;16.20;;;7.60;99.90;;;;;;5035131;28;20214;-85
2023/12/10 02:31:18;;;;;;;17.50;15.70;;;7.60;99.90;;;;;;5013351;28;20242;-84
2023/12/10 02:34:05;;;;;;;17.57;15.60;;;7.60;99.90;;;;;;5035600;28;20195;-84
2023/12/10 02:36:38;;;;;;;16.90;15.23;;;7.70;99.90;;;;;;5035158;28;20561;-85
2023/12/10 02:42:30;;;;;;;15.90;14.20;;;7.70;99.90;;;;;;5029480;28;20200;-85
2023/12/10 02:45:13;;;;;;;16.87;15.03;;;7.70;99.90;;;;;;5012544;28;20222;-84
2023/12/10 02:47:54;;;;;;;18.37;15.17;;;7.70;99.90;;;;;;5010972;28;20196;-84
2023/12/10 02:50:24;;;;;;;16.13;14.57;;;7.70;99.90;;;;;;5035763;28;20195;-85
2023/12/10 02:52:59;;;;;;;19.67;15.00;;;7.70;99.90;;;;;;5017586;28;20208;-85
2023/12/10 02:55:34;;;;;;;17.97;15.13;;;7.70;99.90;;;;;;5016530;28;20219;-85
2023/12/10 02:58:12;;;;;;;25.67;16.40;;;7.70;99.90;;;;;;5025999;28;20212;-84
2023/12/10 03:00:45;;;;;;;21.63;15.57;;;7.70;99.90;;;;;;5025160;28;20219;-84
2023/12/10 03:03:16;;;;;;;16.73;15.03;;;7.70;99.90;;;;;;5035090;28;20196;-85
2023/12/10 03:06:06;;;;;;;18.90;14.70;;;7.70;99.90;;;;;;5033649;28;20653;-85
2023/12/10 03:08:46;;;;;;;17.00;14.93;;;7.60;99.90;;;;;;5014785;28;20192;-85
2023/12/10 03:11:37;;;;;;;15.60;14.20;;;7.70;99.90;;;;;;5031737;28;20589;-84
2023/12/10 03:14:19;;;;;;;15.10;13.77;;;7.60;99.90;;;;;;5023543;28;21957;-85
2023/12/10 03:16:58;;;;;;;15.77;14.33;;;7.60;99.90;;;;;;5027059;28;20225;-84
2023/12/10 03:19:50;;;;;;;15.03;13.50;;;7.60;99.90;;;;;;5036985;28;20210;-84
2023/12/10 03:22:27;;;;;;;14.80;13.40;;;7.60;99.90;;;;;;5016712;28;20203;-85
2023/12/10 03:25:23;;;;;;;15.03;13.70;;;7.50;99.90;;;;;;5037390;28;20215;-84
2023/12/10 03:28:14;;;;;;;14.67;13.30;;;7.50;99.90;;;;;;5013426;28;20287;-85
2023/12/10 03:30:50;;;;;;;16.90;14.30;;;7.40;99.90;;;;;;5014589;28;20204;-85
2023/12/10 03:36:32;;;;;;;16.07;14.43;;;7.30;99.90;;;;;;5030334;28;20206;-84
2023/12/10 03:39:11;;;;;;;15.23;13.73;;;7.30;99.90;;;;;;5016038;28;20202;-85
2023/12/10 03:41:57;;;;;;;15.50;14.00;;;7.30;99.90;;;;;;5015300;28;20235;-85
2023/12/10 03:44:34;;;;;;;14.50;13.30;;;7.30;99.90;;;;;;5022439;28;20730;-85
2023/12/10 03:47:35;;;;;;;15.40;14.03;;;7.20;99.90;;;;;;5007607;28;20570;-84
2023/12/10 03:50:31;;;;;;;15.77;13.80;;;7.20;99.90;;;;;;5029768;28;20211;-84
2023/12/10 03:55:56;;;;;;;15.90;14.03;;;7.10;99.90;;;;;;5033615;28;20326;-84
2023/12/10 03:58:42;;;;;;;;;;;;;;;;;;;;;
2023/12/10 04:01:28;;;;;;;15.87;14.07;;;7.00;99.90;;;;;;5025976;28;20227;-83
2023/12/10 04:04:18;;;;;;;15.80;14.27;;;7.00;99.90;;;;;;5015482;28;20204;-84
2023/12/10 04:06:45;;;;;;;15.43;13.80;;;7.00;99.90;;;;;;5018390;28;20379;-84
2023/12/10 04:17:33;;;;;;;16.00;14.23;;;7.10;99.90;;;;;;5208348;22;20238;-85
2023/12/10 04:20:33;;;;;;;15.97;14.50;;;7.10;99.90;;;;;;4997266;28;20203;-82
2023/12/10 04:23:53;;;;;;;;;;;;;;;;;;;;;
2023/12/10 04:30:15;;;;;;;15.90;14.27;;;7.20;99.90;;;;;;4962244;28;20207;-85
2023/12/10 04:40:48;;;;;;;;;;;;;;;;;;;;;
2023/12/10 04:43:28;;;;;;;15.97;14.47;;;7.20;99.90;;;;;;4950539;28;20210;-86
2023/12/10 04:46:38;;;;;;;16.03;14.43;;;7.10;99.90;;;;;;5023719;28;20223;-85
2023/12/10 04:49:54;;;;;;;17.33;14.53;;;7.10;99.90;;;;;;4984954;28;20484;-86
2023/12/10 04:56:04;;;;;;;15.00;13.70;;;7.10;99.90;;;;;;5009057;28;20220;-85
2023/12/10 05:02:19;;;;;;;;;;;;;;;;;;;;;
2023/12/10 05:05:37;;;;;;;15.23;13.87;;;7.20;99.90;;;;;;5014972;28;20221;-85
2023/12/10 05:14:09;;;;;;;16.30;13.67;;;7.20;99.90;;;;;;5018839;28;20223;-82
2023/12/10 05:16:56;;;;;;;14.43;13.13;;;7.20;99.90;;;;;;5007818;28;20577;-84
2023/12/10 05:33:49;;;;;;;14.57;13.20;;;7.20;99.90;;;;;;4947618;28;20209;-82
2023/12/10 05:40:00;;;;;;;15.30;13.73;;;7.10;99.90;;;;;;4909107;29;20215;-84
2023/12/10 05:42:27;;;;;;;15.63;13.33;;;7.10;99.90;;;;;;4986449;28;20199;-83
2023/12/10 05:48:37;;;;;;;15.10;13.60;;;7.10;99.90;;;;;;5028718;28;20203;-83
2023/12/10 05:51:07;;;;;;;15.07;13.67;;;7.10;99.90;;;;;;5033349;28;20230;-83
2023/12/10 06:07:08;;;;;;;15.33;14.03;;;7.10;99.90;;;;;;5016595;28;20602;-83
2023/12/10 06:09:36;;;;;;;16.23;13.50;;;7.20;99.90;;;;;;5031182;28;20208;-80
2023/12/10 06:19:33;;;;;;;14.50;13.20;;;7.20;99.90;;;;;;4938979;29;20232;-81
2023/12/10 06:21:59;;;;;;;15.60;14.20;;;7.10;99.90;;;;;;5010379;28;20218;-79
2023/12/10 06:24:28;;;;;;;15.30;13.80;;;7.10;99.90;;;;;;5034201;28;20223;-80
2023/12/10 06:26:54;;;;;;;15.10;13.70;;;7.10;99.90;;;;;;5028801;28;20202;-78
2023/12/10 06:29:22;;;;;;;15.70;14.10;;;7.20;99.90;;;;;;5007410;28;20212;-78
2023/12/10 06:31:49;;;;;;;15.73;14.20;;;7.20;99.90;;;;;;5024867;28;20196;-78
2023/12/10 06:34:15;;;;;;;15.47;14.10;;;7.20;99.90;;;;;;5049765;28;20219;-78
2023/12/10 06:36:42;;;;;;;15.20;13.90;;;7.20;99.90;;;;;;5013359;28;20236;-80
2023/12/10 06:39:10;;;;;;;16.53;14.83;;;7.20;99.90;;;;;;5014660;28;20229;-80
2023/12/10 06:41:38;;;;;;;14.77;13.47;;;7.20;99.90;;;;;;5026562;28;20200;-80
2023/12/10 06:44:09;;;;;;;17.27;13.77;;;7.20;99.90;;;;;;5011019;28;20291;-79
2023/12/10 06:46:37;;;;;;;14.30;13.10;;;7.20;99.90;;;;;;5029491;28;20246;-79
2023/12/10 06:49:04;;;;;;;16.73;15.27;;;7.20;99.90;;;;;;5028432;28;20247;-80
2023/12/10 06:51:31;;;;;;;14.37;13.07;;;7.20;99.90;;;;;;5030867;28;20927;-80
2023/12/10 06:53:57;;;;;;;17.60;13.80;;;7.20;99.90;;;;;;5011156;28;20200;-80
2023/12/10 06:56:24;;;;;;;15.70;14.07;;;7.20;99.90;;;;;;5006001;28;20570;-79
2023/12/10 06:58:52;;;;;;;14.50;13.23;;;7.20;99.90;;;;;;5028125;28;20219;-80
2023/12/10 07:01:19;;;;;;;14.60;13.30;;;7.20;99.90;;;;;;5012577;28;20366;-80
2023/12/10 07:03:46;;;;;;;15.33;14.03;;;7.20;99.90;;;;;;5015766;28;20204;-80
2023/12/10 07:06:12;;;;;;;15.03;13.73;;;7.20;99.90;;;;;;5027968;28;20282;-80
2023/12/10 07:08:39;;;;;;;16.63;14.17;;;7.20;99.90;;;;;;5010973;28;20250;-80
2023/12/10 07:11:10;;;;;;;15.23;13.70;;;7.20;99.90;;;;;;5044729;28;20311;-80
2023/12/10 07:13:37;;;;;;;15.60;14.27;;;7.30;99.90;;;;;;5033540;28;20210;-80
2023/12/10 07:16:06;;;;;;;18.40;14.17;;;7.20;99.90;;;;;;5005738;28;20239;-80
2023/12/10 07:18:33;;;;;;;16.00;13.97;;;7.30;99.90;;;;;;5008297;28;20282;-80
2023/12/10 07:20:59;;;;;;;14.93;13.63;;;7.20;99.90;;;;;;5008747;28;20285;-80
2023/12/10 07:23:26;;;;;;;14.40;13.20;;;7.30;99.90;;;;;;5012743;28;20257;-81
2023/12/10 07:25:53;;;;;;;16.57;13.87;;;7.30;99.90;;;;;;5013881;28;20226;-79
2023/12/10 07:28:20;;;;;;;14.80;13.60;;;7.30;99.90;;;;;;5025856;28;20221;-80
2023/12/10 07:31:21;;;;;;;15.10;13.70;;;7.30;99.90;;;;;;5031015;28;20283;-82
2023/12/10 07:34:21;;;;;;;18.00;14.23;;;7.30;99.90;;;;;;5020505;28;20290;-78
2023/12/10 07:36:53;;;;;;;19.33;14.20;;;7.30;99.90;;;;;;5014551;28;20583;-77
2023/12/10 07:39:22;;;;;;;15.43;13.93;;;7.30;99.90;;;;;;5029426;28;20226;-79
2023/12/10 07:41:54;;;;;;;16.90;14.63;;;7.40;99.90;;;;;;5017186;28;20203;-79
2023/12/10 07:44:24;;;;;;;14.83;13.47;;;7.40;99.90;;;;;;5035140;28;20220;-80
2023/12/10 07:47:35;;;;;;;15.60;13.77;;;7.40;99.90;;;;;;5036672;28;20266;-80
2023/12/10 07:50:02;;;;;;;14.73;13.37;;;7.50;99.90;;;;;;5005887;28;20200;-79
2023/12/10 07:52:29;;;;;;;14.83;13.40;;;7.40;99.90;;;;;;5009231;28;20227;-80
2023/12/10 07:54:56;;;;;;;14.87;13.47;;;7.50;99.90;;;;;;5023858;28;20254;-80
2023/12/10 07:57:22;;;;;;;15.57;14.00;;;7.60;99.90;;;;;;5001414;28;20213;-79
2023/12/10 08:08:09;;;;;;;15.43;14.07;;;7.70;99.90;;;;;;4966138;28;20221;-83
2023/12/10 08:18:05;;;;;;;17.27;14.27;;;8.00;99.90;;;;;;5239943;22;20231;-81
2023/12/10 08:21:03;;;;;;;17.27;14.20;;;8.00;99.90;;;;;;5047151;28;20195;-83
2023/12/10 08:31:23;;;;;;;15.17;13.83;;;8.10;99.90;;;;;;4871269;28;20210;-78
2023/12/10 08:33:50;;;;;;;15.00;13.60;;;8.10;99.90;;;;;;4979285;28;20209;-78
2023/12/10 08:36:18;;;;;;;15.67;14.07;;;8.10;99.90;;;;;;4972210;28;20678;-78
2023/12/10 08:38:45;;;;;;;16.37;14.40;;;8.20;99.90;;;;;;4972783;28;20217;-78
2023/12/10 08:41:12;;;;;;;15.20;13.67;;;8.20;99.90;;;;;;4971786;28;20225;-79
2023/12/10 08:43:38;;;;;;;16.90;13.60;;;8.20;99.90;;;;;;4974139;28;20205;-80
2023/12/10 08:46:05;;;;;;;14.80;13.50;;;8.20;99.90;;;;;;4978420;28;20717;-79
2023/12/10 08:48:32;;;;;;;14.70;13.23;;;8.20;99.90;;;;;;5002237;28;20202;-79
2023/12/10 08:50:59;;;;;;;14.20;12.87;;;8.20;99.90;;;;;;4989825;28;20891;-79
2023/12/10 08:53:27;;;;;;;14.03;12.87;;;8.30;99.90;;;;;;4973273;28;20690;-79
2023/12/10 08:55:54;;;;;;;14.40;12.97;;;8.30;99.90;;;;;;4972741;28;20234;-79
2023/12/10 08:58:21;;;;;;;14.33;12.93;;;8.40;99.90;;;;;;4975386;28;20222;-79
2023/12/10 09:00:48;;;;;;;20.83;13.83;;;8.30;99.90;;;;;;4990978;28;20693;-79
2023/12/10 09:03:14;;;;;;;16.30;13.33;;;8.30;99.90;;;;;;4971654;28;20225;-79
2023/12/10 09:05:41;;;;;;;13.80;12.73;;;8.20;99.90;;;;;;4972923;28;20222;-79
2023/12/10 09:08:08;;;;;;;14.93;13.43;;;8.30;99.90;;;;;;4988400;28;20257;-80
2023/12/10 09:10:36;;;;;;;14.70;13.17;;;8.40;99.90;;;;;;4974222;28;20198;-79
2023/12/10 09:13:03;;;;;;;16.10;13.33;;;8.40;99.90;;;;;;4973298;28;20198;-79
2023/12/10 09:15:30;;;;;;;14.47;13.10;;;8.40;99.90;;;;;;4983376;28;20225;-80
2023/12/10 09:17:57;;;;;;;14.40;13.20;;;8.30;99.90;;;;;;4973831;28;20304;-79
2023/12/10 09:20:23;;;;;;;14.60;13.10;;;8.30;99.90;;;;;;4996252;28;20222;-79
2023/12/10 09:22:50;;;;;;;14.73;13.30;;;8.40;99.90;;;;;;4972953;28;20190;-81
2023/12/10 09:25:17;;;;;;;13.63;12.47;;;8.50;99.90;;;;;;4981282;28;20310;-80
2023/12/10 09:27:45;;;;;;;13.73;12.40;;;8.50;99.90;;;;;;4988188;28;20636;-80
2023/12/10 09:30:12;;;;;;;13.73;12.60;;;8.50;99.90;;;;;;4971519;28;20190;-80
2023/12/10 09:32:40;;;;;;;13.50;12.60;;;8.50;99.90;;;;;;4972127;28;20201;-81
2023/12/10 09:35:07;;;;;;;13.97;12.77;;;8.50;99.90;;;;;;4970900;28;20288;-80
2023/12/10 09:37:34;;;;;;;14.03;12.70;;;8.60;99.90;;;;;;4995987;28;20252;-80
2023/12/10 09:40:01;;;;;;;16.10;13.50;;;8.60;99.90;;;;;;4975377;28;20213;-79
2023/12/10 09:42:28;;;;;;;14.67;13.33;;;8.70;99.90;;;;;;4976657;28;20682;-79
2023/12/10 09:44:56;;;;;;;13.70;12.50;;;8.70;99.90;;;;;;4991296;28;20563;-80
2023/12/10 09:47:26;;;;;;;14.00;12.57;;;8.90;99.90;;;;;;4992871;28;20211;-80
2023/12/10 09:50:35;;;;;;;13.77;12.47;;;9.10;99.90;;;;;;4967482;28;20201;-77
2023/12/10 09:53:36;;;;;;;13.63;12.03;;;9.20;99.90;;;;;;4975343;28;20198;-83
2023/12/10 10:07:42;;;;;;;14.30;13.00;;;9.30;99.90;;;;;;4887833;28;20265;-79
2023/12/10 10:10:11;;;;;;;14.03;12.73;;;9.20;99.90;;;;;;4986122;28;20191;-78
2023/12/10 10:12:43;;;;;;;12.93;11.77;;;9.20;99.90;;;;;;4988438;28;20197;-77
2023/12/10 11:17:02;;;;;;;12.47;11.47;;;10.30;99.90;;;;;;4888708;22;20225;-83
2023/12/10 11:40:16;;;;;;;13.47;12.27;;;9.90;99.90;;;;;;5818585;22;20241;-79
2023/12/10 11:42:43;;;;;;;12.63;11.57;;;9.90;99.90;;;;;;5031032;28;20282;-80
2023/12/10 11:45:13;;;;;;;12.30;11.23;;;9.90;99.90;;;;;;5025127;28;20246;-79
2023/12/10 11:47:41;;;;;;;11.47;10.53;;;9.80;99.90;;;;;;5027699;28;20219;-79
2023/12/10 11:50:09;;;;;;;14.73;12.20;;;9.80;99.90;;;;;;5018982;28;20197;-81
2023/12/10 11:52:36;;;;;;;12.60;11.47;;;9.80;99.90;;;;;;5040713;28;20200;-80
2023/12/10 11:55:04;;;;;;;13.10;12.10;;;9.70;99.90;;;;;;5014865;28;20267;-80
2023/12/10 11:57:32;;;;;;;12.53;11.53;;;9.70;99.90;;;;;;5032934;28;20207;-81
2023/12/10 12:00:09;;;;;;;12.63;11.73;;;9.70;99.90;;;;;;5031337;28;20266;-83
2023/12/10 12:02:44;;;;;;;11.80;10.67;;;9.70;99.90;;;;;;5016081;28;20206;-79
2023/12/10 12:05:11;;;;;;;12.13;10.70;;;9.70;99.90;;;;;;5033225;28;20638;-79
2023/12/10 12:07:38;;;;;;;12.13;11.13;;;9.70;99.90;;;;;;5014260;28;20208;-80
2023/12/10 12:10:06;;;;;;;12.77;11.47;;;9.70;99.90;;;;;;5015062;28;20666;-81
2023/12/10 12:12:40;;;;;;;11.50;10.60;;;9.80;99.90;;;;;;5032574;28;20197;-80
2023/12/10 12:15:07;;;;;;;11.60;10.50;;;9.80;99.90;;;;;;5020390;28;20596;-79
2023/12/10 12:17:35;;;;;;;12.40;11.20;;;9.80;99.90;;;;;;5015265;28;20201;-80
2023/12/10 12:20:16;;;;;;;11.60;10.50;;;9.90;99.90;;;;;;5006883;28;20217;-81
2023/12/10 12:35:08;;;;;;;11.53;10.57;;;9.80;99.90;;;;;;5527701;23;20333;-84
2023/12/10 12:41:34;;;;;;;12.03;10.93;;;9.90;99.90;;;;;;4938455;28;20220;-82
2023/12/10 12:44:01;;;;;;;11.73;10.70;;;9.90;99.90;;;;;;5016648;28;20203;-80
2023/12/10 12:46:28;;;;;;;11.40;10.50;;;9.90;99.90;;;;;;5005798;28;20260;-81
2023/12/10 12:48:54;;;;;;;11.80;10.73;;;10.00;99.90;;;;;;4994063;28;20610;-81
2023/12/10 12:51:23;;;;;;;12.07;11.00;;;10.00;99.90;;;;;;5003487;28;20264;-81
2023/12/10 12:53:49;;;;;;;12.53;11.50;;;10.00;99.90;;;;;;4994443;28;20197;-80
2023/12/10 12:56:18;;;;;;;12.00;10.77;;;10.00;99.90;;;;;;5008610;28;20204;-79
2023/12/10 13:09:23;;;;;;;11.70;10.73;;;10.10;99.90;;;;;;5741882;23;20244;-76
2023/12/10 14:22:24;;;;;;;13.67;11.27;;;9.70;99.90;;;;;;4941741;28;20259;-80
2023/12/10 15:02:39;;;;;;;13.63;12.47;;;9.30;99.90;;;;;;5557858;22;20251;-84
2023/12/10 15:05:09;;;;;;;12.13;11.20;;;9.30;99.90;;;;;;4992739;28;20247;-81
2023/12/10 15:07:41;;;;;;;15.30;11.73;;;9.20;99.90;;;;;;4973803;28;20751;-82
2023/12/10 15:10:09;;;;;;;12.33;11.43;;;9.20;99.90;;;;;;4975521;28;20197;-80
2023/12/10 15:12:35;;;;;;;12.97;11.73;;;9.10;99.90;;;;;;4972915;28;20264;-80
2023/12/10 15:15:02;;;;;;;12.53;11.60;;;9.00;99.90;;;;;;4987247;28;20221;-81
2023/12/10 15:17:29;;;;;;;12.50;11.40;;;8.90;99.90;;;;;;4975697;28;20205;-80
2023/12/10 15:19:57;;;;;;;9.20;8.50;;;8.90;99.90;;;;;;4990536;28;20271;-80
2023/12/10 15:22:25;;;;;;;9.60;8.03;;;8.80;99.90;;;;;;4994080;28;20247;-84
2023/12/10 15:24:51;;;;;;;6.63;5.10;;;8.80;99.90;;;;;;4993330;28;21020;-85
2023/12/10 15:27:19;;;;;;;11.27;10.07;;;8.70;99.90;;;;;;4984673;28;20239;-83
2023/12/10 15:29:46;;;;;;;11.10;6.23;;;8.70;99.90;;;;;;4987732;28;20609;-79
2023/12/10 15:32:12;;;;;;;13.47;12.13;;;8.70;99.90;;;;;;4976543;28;20201;-80
2023/12/10 15:34:39;;;;;;;11.17;10.27;;;8.70;99.90;;;;;;4969155;28;20217;-81
2023/12/10 15:37:07;;;;;;;7.00;4.73;;;8.70;99.90;;;;;;4986635;28;20558;-80
2023/12/10 15:39:34;;;;;;;10.03;7.67;;;8.70;99.90;;;;;;4992599;28;20213;-81
2023/12/10 15:42:01;;;;;;;7.77;6.93;;;8.80;99.90;;;;;;4976140;28;20209;-83
2023/12/10 15:47:09;;;;;;;6.73;3.73;;;8.70;99.90;;;;;;5134549;23;20289;-82
2023/12/10 15:50:31;;;;;;;8.57;6.50;;;8.70;99.90;;;;;;5026682;28;20196;-84
2023/12/10 15:52:59;;;;;;;9.77;8.87;;;8.70;99.90;;;;;;5019474;28;20203;-80
2023/12/10 15:55:25;;;;;;;11.63;10.63;;;8.70;99.90;;;;;;5031495;28;20227;-81
2023/12/10 15:57:52;;;;;;;11.00;10.00;;;8.60;99.90;;;;;;5011575;28;20208;-80
2023/12/10 16:00:20;;;;;;;11.70;10.60;;;8.60;99.90;;;;;;5010556;28;20215;-80
2023/12/10 16:02:47;;;;;;;11.87;10.70;;;8.60;99.90;;;;;;5015403;28;20735;-78
2023/12/10 16:05:16;;;;;;;13.97;10.93;;;8.60;99.90;;;;;;5037176;28;20221;-80
2023/12/10 16:07:43;;;;;;;12.63;11.33;;;8.60;99.90;;;;;;5019041;28;20452;-80
2023/12/10 16:10:11;;;;;;;12.10;10.77;;;8.60;99.90;;;;;;5022871;28;20210;-80
2023/12/10 16:12:38;;;;;;;11.13;10.23;;;8.60;99.90;;;;;;5012743;28;20269;-81
2023/12/10 16:15:06;;;;;;;10.77;6.43;;;8.60;99.90;;;;;;5030625;28;20714;-83
2023/12/10 16:17:33;;;;;;;15.07;11.23;;;8.60;99.90;;;;;;5020204;28;20659;-79
2023/12/10 16:24:33;;;;;;;;;;;;;;;;;;;;;
2023/12/10 16:27:28;;;;;;;13.60;12.30;;;8.60;99.90;;;;;;4969572;28;20205;-85
2023/12/10 16:30:22;;;;;;;12.63;11.50;;;8.60;99.90;;;;;;4977463;28;20271;-85
2023/12/10 16:33:46;;;;;;;;;;;;;;;;;;;;;
2023/12/10 16:50:32;;;;;;;12.87;11.00;;;8.40;99.90;;;;;;5664640;23;20228;-85
2023/12/10 16:53:02;;;;;;;11.87;10.67;;;8.40;99.90;;;;;;5023912;28;20235;-79
2023/12/10 16:55:30;;;;;;;11.20;10.40;;;8.40;99.90;;;;;;5007034;28;20240;-81
2023/12/10 16:57:57;;;;;;;12.43;11.33;;;8.40;99.90;;;;;;5022900;28;20203;-81
2023/12/10 17:00:25;;;;;;;12.83;11.70;;;8.40;99.90;;;;;;5012070;28;20642;-79
2023/12/10 17:02:51;;;;;;;12.97;11.63;;;8.30;99.90;;;;;;4989250;28;20215;-80
2023/12/10 17:05:20;;;;;;;12.47;11.47;;;8.30;99.90;;;;;;4986168;28;20225;-82
2023/12/10 17:07:46;;;;;;;12.10;11.10;;;8.30;99.90;;;;;;5011733;28;20594;-81
2023/12/10 17:10:13;;;;;;;12.83;11.63;;;8.20;99.90;;;;;;5012358;28;20224;-81
2023/12/10 17:12:40;;;;;;;12.97;11.97;;;8.20;99.90;;;;;;4995479;28;20235;-80
2023/12/10 17:15:08;;;;;;;12.47;11.47;;;8.10;99.90;;;;;;4991085;28;20216;-81
2023/12/10 17:17:35;;;;;;;11.63;10.80;;;8.00;99.90;;;;;;4993831;28;20208;-81
2023/12/10 17:20:04;;;;;;;11.53;10.70;;;8.00;99.90;;;;;;4991624;28;20213;-81
2023/12/10 17:22:32;;;;;;;12.07;11.10;;;7.90;99.90;;;;;;4997532;28;20201;-80
2023/12/10 17:24:59;;;;;;;12.00;11.10;;;7.80;99.90;;;;;;5001615;28;20228;-80
2023/12/10 17:27:26;;;;;;;13.20;12.10;;;7.80;99.90;;;;;;5011543;28;20259;-79
2023/12/10 17:29:53;;;;;;;14.33;12.80;;;7.80;99.90;;;;;;5007994;28;20206;-78
2023/12/10 17:32:20;;;;;;;13.27;11.97;;;7.80;99.90;;;;;;4998845;28;20200;-77
2023/12/10 17:34:47;;;;;;;13.43;12.17;;;7.80;99.90;;;;;;4993117;28;20244;-77
2023/12/10 17:37:14;;;;;;;13.40;12.27;;;7.70;99.90;;;;;;5012016;28;20203;-78
2023/12/10 17:39:43;;;;;;;13.67;12.47;;;7.70;99.90;;;;;;5008133;28;20204;-78
2023/12/10 17:42:09;;;;;;;12.60;11.80;;;7.80;99.90;;;;;;5012430;28;20230;-77
2023/12/10 17:44:36;;;;;;;11.93;11.03;;;7.80;99.90;;;;;;5012881;28;20221;-78
2023/12/10 17:47:03;;;;;;;13.00;12.10;;;7.80;99.90;;;;;;5012512;28;20215;-77
2023/12/10 17:49:30;;;;;;;13.20;12.10;;;7.80;99.90;;;;;;4994867;28;20258;-78
2023/12/10 17:51:57;;;;;;;13.70;12.70;;;7.80;99.90;;;;;;4994908;28;20204;-78
2023/12/10 17:58:04;;;;;;;15.37;13.80;;;7.80;99.90;;;;;;4861586;29;20725;-81
2023/12/10 18:04:08;;;;;;;15.47;13.93;;;7.60;99.90;;;;;;5001804;28;20275;-82
2023/12/10 18:10:21;;;;;;;15.93;14.47;;;7.60;99.90;;;;;;4926255;29;20310;-80
2023/12/10 18:12:48;;;;;;;16.57;15.10;;;7.60;99.90;;;;;;4937320;28;20618;-79
2023/12/10 18:17:58;;;;;;;14.13;13.13;;;7.70;99.90;;;;;;1378954;26;20225;-80
2023/12/10 18:20:25;;;;;;;14.70;13.50;;;7.70;99.90;;;;;;5000333;28;20216;-80
2023/12/10 18:22:52;;;;;;;14.47;13.17;;;7.60;99.90;;;;;;5003111;28;20557;-80
2023/12/10 18:25:19;;;;;;;16.27;14.87;;;7.70;99.90;;;;;;5005777;28;20215;-79
2023/12/10 18:27:49;;;;;;;14.67;13.47;;;7.60;99.90;;;;;;4993118;28;20209;-78
2023/12/10 18:30:17;;;;;;;24.37;17.60;;;7.60;99.90;;;;;;5015063;28;20200;-81
2023/12/10 18:32:48;;;;;;;22.67;16.43;;;7.50;99.90;;;;;;5001612;28;20209;-82
2023/12/10 18:35:21;;;;;;;15.67;14.07;;;7.50;99.90;;;;;;5016490;28;20307;-81
2023/12/10 18:37:52;;;;;;;15.07;13.67;;;7.40;99.90;;;;;;5032785;28;20201;-81
2023/12/10 18:40:18;;;;;;;16.57;14.67;;;7.50;99.90;;;;;;5021014;28;20691;-81
2023/12/10 18:42:45;;;;;;;15.07;13.80;;;7.40;99.90;;;;;;5003965;28;20205;-81
2023/12/10 18:45:12;;;;;;;15.53;13.90;;;7.50;99.90;;;;;;5004770;28;20633;-81
2023/12/10 18:47:39;;;;;;;13.93;12.87;;;7.50;99.90;;;;;;5013137;28;20540;-80
2023/12/10 18:50:07;;;;;;;13.27;12.17;;;7.60;99.90;;;;;;5015068;28;20196;-80
2023/12/10 18:52:36;;;;;;;13.37;12.40;;;7.70;99.90;;;;;;5030650;28;20192;-81
2023/12/10 18:55:03;;;;;;;13.53;12.43;;;7.90;99.90;;;;;;5009449;28;20212;-81
2023/12/10 18:57:31;;;;;;;12.73;11.77;;;8.10;99.90;;;;;;4997810;28;20228;-81
2023/12/10 18:59:58;;;;;;;12.33;11.47;;;8.20;99.90;;;;;;5018130;28;20193;-80
2023/12/10 19:02:24;;;;;;;12.80;11.90;;;8.30;99.90;;;;;;5023829;28;20220;-80
2023/12/10 19:04:51;;;;;;;12.23;11.37;;;8.40;99.90;;;;;;4997963;28;20220;-80
2023/12/10 19:07:18;;;;;;;12.40;11.60;;;8.40;99.90;;;;;;5021335;28;20193;-80
2023/12/10 19:09:47;;;;;;;12.43;11.37;;;8.50;99.90;;;;;;5021565;28;20216;-80
2023/12/10 19:12:15;;;;;;;12.20;11.30;;;8.50;99.90;;;;;;5004338;28;20204;-80
2023/12/10 19:14:42;;;;;;;11.90;11.00;;;8.60;99.90;;;;;;5028681;28;20213;-81
2023/12/10 19:17:09;;;;;;;12.00;11.10;;;8.60;99.90;;;;;;5001880;28;20249;-79
2023/12/10 19:19:38;;;;;;;12.47;11.40;;;8.60;99.90;;;;;;5014227;28;20668;-80
2023/12/10 19:22:05;;;;;;;11.53;10.60;;;8.60;99.90;;;;;;5000575;28;20217;-80
2023/12/10 19:24:31;;;;;;;11.60;10.80;;;8.70;99.90;;;;;;5008601;28;20275;-81
2023/12/10 19:27:00;;;;;;;12.23;11.33;;;8.70;99.90;;;;;;4985208;28;20201;-82
2023/12/10 19:29:28;;;;;;;12.07;11.27;;;8.70;99.90;;;;;;4991224;28;20200;-80
2023/12/10 19:31:55;;;;;;;12.00;11.10;;;8.70;99.90;;;;;;4986787;28;20197;-81
2023/12/10 19:34:22;;;;;;;13.60;12.43;;;8.70;99.90;;;;;;5008844;28;20224;-81